sensor_id;sensor_type;location;lat;lon;timestamp;pressure;altitude;pressure_sealevel;temperature;humidity
82148;BME280;71718;50.480;12.110;2024-02-15T00:00:32;98027.38;;;7.51;79.64
82148;BME280;71718;50.480;12.110;2024-02-15T00:02:59;98034.34;;;7.51;83.44
82148;BME280;71718;50.480;12.110;2024-02-15T00:05:40;98038.16;;;7.55;82.05
82148;BME280;71718;50.480;12.110;2024-02-15T00:08:07;98034.34;;;7.51;79.02
82148;BME280;71718;50.480;12.110;2024-02-15T00:10:33;98034.88;;;7.46;73.88
82148;BME280;71718;50.480;12.110;2024-02-15T00:12:59;98031.75;;;7.51;79.86
82148;BME280;71718;50.480;12.110;2024-02-15T00:15:26;98029.59;;;7.54;78.41
82148;BME280;71718;50.480;12.110;2024-02-15T00:17:52;98025.25;;;7.55;79.33
82148;BME280;71718;50.480;12.110;2024-02-15T00:20:19;98023.84;;;7.52;77.41
82148;BME280;71718;50.480;12.110;2024-02-15T00:22:46;98024.00;;;7.51;73.87
82148;BME280;71718;50.480;12.110;2024-02-15T00:25:14;98021.94;;;7.46;73.93
82148;BME280;71718;50.480;12.110;2024-02-15T00:27:40;98023.91;;;7.44;74.12
82148;BME280;71718;50.480;12.110;2024-02-15T00:30:08;98020.34;;;7.45;74.27
82148;BME280;71718;50.480;12.110;2024-02-15T00:32:35;98018.13;;;7.42;71.72
82148;BME280;71718;50.480;12.110;2024-02-15T00:35:03;98018.66;;;7.38;73.25
82148;BME280;71718;50.480;12.110;2024-02-15T00:37:30;98013.13;;;7.41;78.65
82148;BME280;71718;50.480;12.110;2024-02-15T00:39:56;98015.34;;;7.44;76.21
82148;BME280;71718;50.480;12.110;2024-02-15T00:42:23;98018.56;;;7.46;76.69
82148;BME280;71718;50.480;12.110;2024-02-15T00:44:49;98014.56;;;7.43;73.24
82148;BME280;71718;50.480;12.110;2024-02-15T00:47:16;98015.81;;;7.47;76.17
82148;BME280;71718;50.480;12.110;2024-02-15T00:49:42;98019.53;;;7.45;76.51
82148;BME280;71718;50.480;12.110;2024-02-15T00:52:09;98022.13;;;7.45;76.93
82148;BME280;71718;50.480;12.110;2024-02-15T00:54:35;98019.72;;;7.43;78.12
82148;BME280;71718;50.480;12.110;2024-02-15T00:57:02;98025.50;;;7.45;80.80
82148;BME280;71718;50.480;12.110;2024-02-15T00:59:29;98020.16;;;7.47;74.88
82148;BME280;71718;50.480;12.110;2024-02-15T01:01:55;98033.63;;;7.42;73.48
82148;BME280;71718;50.480;12.110;2024-02-15T01:04:22;98032.00;;;7.41;77.94
82148;BME280;71718;50.480;12.110;2024-02-15T01:06:48;98025.34;;;7.47;78.67
82148;BME280;71718;50.480;12.110;2024-02-15T01:09:15;98025.50;;;7.45;76.54
82148;BME280;71718;50.480;12.110;2024-02-15T01:11:41;98030.69;;;7.45;72.90
82148;BME280;71718;50.480;12.110;2024-02-15T01:14:08;98029.34;;;7.49;76.02
82148;BME280;71718;50.480;12.110;2024-02-15T01:16:34;98023.66;;;7.54;75.37
82148;BME280;71718;50.480;12.110;2024-02-15T01:19:01;98019.28;;;7.54;77.32
82148;BME280;71718;50.480;12.110;2024-02-15T01:21:27;98016.78;;;7.46;73.40
82148;BME280;71718;50.480;12.110;2024-02-15T01:23:54;98015.59;;;7.49;76.05
82148;BME280;71718;50.480;12.110;2024-02-15T01:26:20;98016.69;;;7.54;78.05
82148;BME280;71718;50.480;12.110;2024-02-15T01:28:47;98014.47;;;7.51;78.20
82148;BME280;71718;50.480;12.110;2024-02-15T01:31:13;98010.91;;;7.52;73.38
82148;BME280;71718;50.480;12.110;2024-02-15T01:33:40;98010.44;;;7.49;72.97
82148;BME280;71718;50.480;12.110;2024-02-15T01:36:06;98011.63;;;7.46;74.29
82148;BME280;71718;50.480;12.110;2024-02-15T01:38:33;98010.69;;;7.39;73.25
82148;BME280;71718;50.480;12.110;2024-02-15T01:41:00;98021.50;;;7.43;73.79
82148;BME280;71718;50.480;12.110;2024-02-15T01:43:26;98015.88;;;7.39;72.80
82148;BME280;71718;50.480;12.110;2024-02-15T01:45:53;98014.72;;;7.42;73.15
82148;BME280;71718;50.480;12.110;2024-02-15T01:48:19;98013.13;;;7.41;72.97
82148;BME280;71718;50.480;12.110;2024-02-15T01:50:46;98010.69;;;7.39;73.34
82148;BME280;71718;50.480;12.110;2024-02-15T01:53:13;98012.31;;;7.40;73.87
82148;BME280;71718;50.480;12.110;2024-02-15T01:55:39;98003.75;;;7.40;73.83
82148;BME280;71718;50.480;12.110;2024-02-15T01:58:06;98000.19;;;7.41;74.05
82148;BME280;71718;50.480;12.110;2024-02-15T02:00:33;98005.19;;;7.42;75.96
82148;BME280;71718;50.480;12.110;2024-02-15T02:03:02;98002.88;;;7.47;76.28
82148;BME280;71718;50.480;12.110;2024-02-15T02:05:30;98007.53;;;7.52;74.61
82148;BME280;71718;50.480;12.110;2024-02-15T02:07:57;98000.56;;;7.52;74.87
82148;BME280;71718;50.480;12.110;2024-02-15T02:10:24;98005.56;;;7.54;74.26
82148;BME280;71718;50.480;12.110;2024-02-15T02:12:50;98001.97;;;7.55;74.58
82148;BME280;71718;50.480;12.110;2024-02-15T02:15:17;97999.22;;;7.56;74.66
82148;BME280;71718;50.480;12.110;2024-02-15T02:17:48;97993.25;;;7.56;74.22
82148;BME280;71718;50.480;12.110;2024-02-15T02:20:15;98001.44;;;7.59;74.93
82148;BME280;71718;50.480;12.110;2024-02-15T02:22:41;98004.50;;;7.63;78.21
82148;BME280;71718;50.480;12.110;2024-02-15T02:25:11;97994.97;;;7.64;73.09
82148;BME280;71718;50.480;12.110;2024-02-15T02:27:38;97992.00;;;7.67;73.55
82148;BME280;71718;50.480;12.110;2024-02-15T02:30:11;97989.78;;;7.64;73.59
82148;BME280;71718;50.480;12.110;2024-02-15T02:32:38;97991.31;;;7.58;74.24
82148;BME280;71718;50.480;12.110;2024-02-15T02:35:05;97994.78;;;7.65;77.04
82148;BME280;71718;50.480;12.110;2024-02-15T02:37:31;97986.69;;;7.68;74.79
82148;BME280;71718;50.480;12.110;2024-02-15T02:39:58;97989.69;;;7.72;75.74
82148;BME280;71718;50.480;12.110;2024-02-15T02:42:24;97980.78;;;7.74;72.94
82148;BME280;71718;50.480;12.110;2024-02-15T02:44:51;97984.53;;;7.72;73.07
82148;BME280;71718;50.480;12.110;2024-02-15T02:47:17;97991.94;;;7.75;73.67
82148;BME280;71718;50.480;12.110;2024-02-15T02:49:44;97989.78;;;7.78;73.10
82148;BME280;71718;50.480;12.110;2024-02-15T02:52:10;97990.59;;;7.79;73.64
82148;BME280;71718;50.480;12.110;2024-02-15T02:54:37;97987.81;;;7.80;72.69
82148;BME280;71718;50.480;12.110;2024-02-15T02:57:03;97990.13;;;7.75;74.71
82148;BME280;71718;50.480;12.110;2024-02-15T02:59:30;97981.66;;;7.81;74.80
82148;BME280;71718;50.480;12.110;2024-02-15T03:01:56;97986.03;;;7.81;72.62
82148;BME280;71718;50.480;12.110;2024-02-15T03:04:23;97985.44;;;7.79;72.66
82148;BME280;71718;50.480;12.110;2024-02-15T03:06:49;97989.78;;;7.78;72.80
82148;BME280;71718;50.480;12.110;2024-02-15T03:09:16;97986.56;;;7.76;73.22
82148;BME280;71718;50.480;12.110;2024-02-15T03:11:42;97985.59;;;7.77;72.78
82148;BME280;71718;50.480;12.110;2024-02-15T03:14:09;97992.97;;;7.80;76.25
82148;BME280;71718;50.480;12.110;2024-02-15T03:16:35;97984.63;;;7.78;72.70
82148;BME280;71718;50.480;12.110;2024-02-15T03:19:02;97986.03;;;7.81;72.63
82148;BME280;71718;50.480;12.110;2024-02-15T03:21:28;97979.72;;;7.83;77.80
82148;BME280;71718;50.480;12.110;2024-02-15T03:23:55;97979.72;;;7.83;73.90
82148;BME280;71718;50.480;12.110;2024-02-15T03:26:31;97988.63;;;7.81;73.69
82148;BME280;71718;50.480;12.110;2024-02-15T03:28:58;97988.44;;;7.82;78.23
82148;BME280;71718;50.480;12.110;2024-02-15T03:31:25;97981.13;;;7.86;76.71
82148;BME280;71718;50.480;12.110;2024-02-15T03:33:51;97980.59;;;7.76;73.65
82148;BME280;71718;50.480;12.110;2024-02-15T03:36:18;97981.41;;;7.76;72.41
82148;BME280;71718;50.480;12.110;2024-02-15T03:38:45;97987.38;;;7.77;73.38
82148;BME280;71718;50.480;12.110;2024-02-15T03:41:11;97980.31;;;7.85;79.38
82148;BME280;71718;50.480;12.110;2024-02-15T03:43:38;97985.41;;;7.93;79.36
82148;BME280;71718;50.480;12.110;2024-02-15T03:46:04;97989.69;;;8.01;78.74
82148;BME280;71718;50.480;12.110;2024-02-15T03:48:31;97991.38;;;8.09;81.47
82148;BME280;71718;50.480;12.110;2024-02-15T03:50:57;97984.44;;;8.09;78.70
82148;BME280;71718;50.480;12.110;2024-02-15T03:53:24;97989.22;;;8.12;81.65
82148;BME280;71718;50.480;12.110;2024-02-15T03:55:50;97993.81;;;8.10;79.98
82148;BME280;71718;50.480;12.110;2024-02-15T03:58:17;97997.19;;;8.11;77.27
82148;BME280;71718;50.480;12.110;2024-02-15T04:00:43;97990.22;;;8.11;75.44
82148;BME280;71718;50.480;12.110;2024-02-15T04:03:10;97989.44;;;8.11;78.00
82148;BME280;71718;50.480;12.110;2024-02-15T04:05:36;97993.44;;;8.13;78.48
82148;BME280;71718;50.480;12.110;2024-02-15T04:08:03;98002.06;;;8.20;80.49
82148;BME280;71718;50.480;12.110;2024-02-15T04:10:30;97998.84;;;8.18;78.03
82148;BME280;71718;50.480;12.110;2024-02-15T04:12:56;97996.34;;;8.25;79.62
82148;BME280;71718;50.480;12.110;2024-02-15T04:15:23;97999.28;;;8.22;77.94
82148;BME280;71718;50.480;12.110;2024-02-15T04:17:50;98006.31;;;8.28;81.11
82148;BME280;71718;50.480;12.110;2024-02-15T04:20:17;97998.50;;;8.21;72.28
82148;BME280;71718;50.480;12.110;2024-02-15T04:22:44;98010.91;;;8.26;75.71
82148;BME280;71718;50.480;12.110;2024-02-15T04:25:11;98014.28;;;8.26;77.97
82148;BME280;71718;50.480;12.110;2024-02-15T04:27:38;98015.16;;;8.33;81.34
82148;BME280;71718;50.480;12.110;2024-02-15T04:30:05;98012.66;;;8.40;80.40
82148;BME280;71718;50.480;12.110;2024-02-15T04:32:32;98024.41;;;8.42;80.24
82148;BME280;71718;50.480;12.110;2024-02-15T04:35:00;98022.44;;;8.44;79.04
82148;BME280;71718;50.480;12.110;2024-02-15T04:37:26;98020.41;;;8.40;76.91
82148;BME280;71718;50.480;12.110;2024-02-15T04:39:52;98019.34;;;8.34;73.66
82148;BME280;71718;50.480;12.110;2024-02-15T04:42:19;98023.28;;;8.30;74.21
82148;BME280;71718;50.480;12.110;2024-02-15T04:44:45;98022.13;;;8.33;76.69
82148;BME280;71718;50.480;12.110;2024-02-15T04:47:12;98025.94;;;8.37;78.20
82148;BME280;71718;50.480;12.110;2024-02-15T04:49:38;98010.53;;;8.29;72.29
82148;BME280;71718;50.480;12.110;2024-02-15T04:52:05;98008.50;;;8.24;73.22
82148;BME280;71718;50.480;12.110;2024-02-15T04:54:32;98004.13;;;8.25;75.39
82148;BME280;71718;50.480;12.110;2024-02-15T04:56:58;98002.34;;;8.25;76.52
82148;BME280;71718;50.480;12.110;2024-02-15T04:59:25;98005.53;;;8.27;73.17
82148;BME280;71718;50.480;12.110;2024-02-15T05:01:54;98000.97;;;8.29;72.65
82148;BME280;71718;50.480;12.110;2024-02-15T05:04:21;98013.53;;;8.32;76.98
82148;BME280;71718;50.480;12.110;2024-02-15T05:06:47;98019.97;;;8.36;79.88
82148;BME280;71718;50.480;12.110;2024-02-15T05:09:14;98025.03;;;8.44;81.28
82148;BME280;71718;50.480;12.110;2024-02-15T05:11:40;98027.88;;;8.50;77.70
82148;BME280;71718;50.480;12.110;2024-02-15T05:14:07;98023.88;;;8.47;76.05
82148;BME280;71718;50.480;12.110;2024-02-15T05:16:34;98017.28;;;8.44;73.22
82148;BME280;71718;50.480;12.110;2024-02-15T05:19:00;98030.03;;;8.46;73.19
82148;BME280;71718;50.480;12.110;2024-02-15T05:21:27;98026.00;;;8.43;73.43
82148;BME280;71718;50.480;12.110;2024-02-15T05:23:53;98021.63;;;8.44;72.76
82148;BME280;71718;50.480;12.110;2024-02-15T05:26:20;98015.22;;;8.40;70.74
82148;BME280;71718;50.480;12.110;2024-02-15T05:28:46;98015.66;;;8.43;77.22
82148;BME280;71718;50.480;12.110;2024-02-15T05:31:14;98021.03;;;8.42;77.87
82148;BME280;71718;50.480;12.110;2024-02-15T05:33:40;98015.56;;;8.52;80.26
82148;BME280;71718;50.480;12.110;2024-02-15T05:36:07;98021.97;;;8.56;79.29
82148;BME280;71718;50.480;12.110;2024-02-15T05:38:33;98016.00;;;8.55;74.00
82148;BME280;71718;50.480;12.110;2024-02-15T05:41:00;98021.34;;;8.54;73.75
82148;BME280;71718;50.480;12.110;2024-02-15T05:43:27;98030.63;;;8.48;73.47
82148;BME280;71718;50.480;12.110;2024-02-15T05:45:53;98022.53;;;8.51;77.14
82148;BME280;71718;50.480;12.110;2024-02-15T05:48:19;98019.47;;;8.48;75.85
82148;BME280;71718;50.480;12.110;2024-02-15T05:50:46;98028.19;;;8.40;71.22
82148;BME280;71718;50.480;12.110;2024-02-15T05:53:12;98031.91;;;8.37;74.77
82148;BME280;71718;50.480;12.110;2024-02-15T05:55:38;98021.81;;;8.42;74.92
82148;BME280;71718;50.480;12.110;2024-02-15T05:58:05;98029.06;;;8.47;76.29
82148;BME280;71718;50.480;12.110;2024-02-15T06:00:31;98024.06;;;8.45;75.16
82148;BME280;71718;50.480;12.110;2024-02-15T06:02:58;98026.28;;;8.49;74.97
82148;BME280;71718;50.480;12.110;2024-02-15T06:05:24;98018.97;;;8.37;70.98
82148;BME280;71718;50.480;12.110;2024-02-15T06:07:51;98013.75;;;8.31;71.18
82148;BME280;71718;50.480;12.110;2024-02-15T06:10:17;98019.53;;;8.33;72.37
82148;BME280;71718;50.480;12.110;2024-02-15T06:12:44;98020.31;;;8.33;71.01
82148;BME280;71718;50.480;12.110;2024-02-15T06:15:10;98025.88;;;8.30;73.00
82148;BME280;71718;50.480;12.110;2024-02-15T06:17:37;98031.47;;;8.34;72.25
82148;BME280;71718;50.480;12.110;2024-02-15T06:20:04;98020.06;;;8.28;70.69
82148;BME280;71718;50.480;12.110;2024-02-15T06:22:30;98023.28;;;8.30;74.58
82148;BME280;71718;50.480;12.110;2024-02-15T06:24:57;98022.75;;;8.35;74.30
82148;BME280;71718;50.480;12.110;2024-02-15T06:27:23;98032.53;;;8.39;78.45
82148;BME280;71718;50.480;12.110;2024-02-15T06:29:50;98032.38;;;8.41;77.91
82148;BME280;71718;50.480;12.110;2024-02-15T06:32:16;98046.97;;;8.49;77.08
82148;BME280;71718;50.480;12.110;2024-02-15T06:34:43;98052.06;;;8.57;78.41
82148;BME280;71718;50.480;12.110;2024-02-15T06:37:09;98046.25;;;8.55;73.02
82148;BME280;71718;50.480;12.110;2024-02-15T06:39:36;98045.88;;;8.58;74.80
82148;BME280;71718;50.480;12.110;2024-02-15T06:42:02;98045.78;;;8.66;77.82
82148;BME280;71718;50.480;12.110;2024-02-15T06:44:29;98051.22;;;8.71;78.50
82148;BME280;71718;50.480;12.110;2024-02-15T06:46:55;98045.47;;;8.75;76.61
82148;BME280;71718;50.480;12.110;2024-02-15T06:49:23;98038.88;;;8.73;73.65
82148;BME280;71718;50.480;12.110;2024-02-15T06:51:50;98045.53;;;8.82;78.26
82148;BME280;71718;50.480;12.110;2024-02-15T06:54:17;98049.38;;;8.86;78.82
82148;BME280;71718;50.480;12.110;2024-02-15T06:56:46;98056.75;;;8.89;78.70
82148;BME280;71718;50.480;12.110;2024-02-15T06:59:13;98056.81;;;8.96;78.90
82148;BME280;71718;50.480;12.110;2024-02-15T07:01:42;98057.44;;;8.98;75.71
82148;BME280;71718;50.480;12.110;2024-02-15T07:04:09;98050.72;;;9.03;74.99
82148;BME280;71718;50.480;12.110;2024-02-15T07:06:37;98044.75;;;9.03;76.46
82148;BME280;71718;50.480;12.110;2024-02-15T07:09:04;98041.78;;;9.06;76.22
82148;BME280;71718;50.480;12.110;2024-02-15T07:11:34;98046.94;;;9.06;78.40
82148;BME280;71718;50.480;12.110;2024-02-15T07:14:01;98033.88;;;9.14;78.03
82148;BME280;71718;50.480;12.110;2024-02-15T07:16:27;98047.81;;;9.13;75.48
82148;BME280;71718;50.480;12.110;2024-02-15T07:18:54;98048.25;;;9.16;72.85
82148;BME280;71718;50.480;12.110;2024-02-15T07:21:20;98052.28;;;9.25;75.29
82148;BME280;71718;50.480;12.110;2024-02-15T07:23:47;98055.38;;;9.36;75.25
82148;BME280;71718;50.480;12.110;2024-02-15T07:26:13;98056.84;;;9.45;76.92
82148;BME280;71718;50.480;12.110;2024-02-15T07:28:40;98055.91;;;9.52;75.28
82148;BME280;71718;50.480;12.110;2024-02-15T07:31:06;98059.56;;;9.58;76.55
82148;BME280;71718;50.480;12.110;2024-02-15T07:33:32;98064.81;;;9.64;76.34
82148;BME280;71718;50.480;12.110;2024-02-15T07:35:59;98054.03;;;9.67;76.00
82148;BME280;71718;50.480;12.110;2024-02-15T07:38:26;98064.63;;;9.66;73.19
82148;BME280;71718;50.480;12.110;2024-02-15T07:40:52;98061.00;;;9.67;72.98
82148;BME280;71718;50.480;12.110;2024-02-15T07:43:18;98059.03;;;9.69;73.02
82148;BME280;71718;50.480;12.110;2024-02-15T07:45:45;98051.09;;;9.77;74.35
82148;BME280;71718;50.480;12.110;2024-02-15T07:48:11;98062.06;;;9.72;69.93
82148;BME280;71718;50.480;12.110;2024-02-15T07:50:38;98055.53;;;9.77;71.15
82148;BME280;71718;50.480;12.110;2024-02-15T07:53:04;98056.53;;;9.82;73.33
82148;BME280;71718;50.480;12.110;2024-02-15T07:55:31;98049.38;;;9.84;72.51
82148;BME280;71718;50.480;12.110;2024-02-15T07:57:57;98055.53;;;9.83;71.29
82148;BME280;71718;50.480;12.110;2024-02-15T08:00:24;98052.53;;;9.80;72.61
82148;BME280;71718;50.480;12.110;2024-02-15T08:02:50;98045.50;;;9.73;70.14
82148;BME280;71718;50.480;12.110;2024-02-15T08:05:16;98053.47;;;9.72;72.34
82148;BME280;71718;50.480;12.110;2024-02-15T08:07:44;98041.75;;;9.76;74.50
82148;BME280;71718;50.480;12.110;2024-02-15T08:10:11;98038.19;;;9.84;75.55
82148;BME280;71718;50.480;12.110;2024-02-15T08:12:44;98043.41;;;9.90;75.18
82148;BME280;71718;50.480;12.110;2024-02-15T08:15:12;98040.28;;;10.01;74.11
82148;BME280;71718;50.480;12.110;2024-02-15T08:17:40;98038.13;;;10.11;74.97
82148;BME280;71718;50.480;12.110;2024-02-15T08:20:09;98042.56;;;10.24;75.61
82148;BME280;71718;50.480;12.110;2024-02-15T08:22:36;98029.47;;;10.39;74.33
82148;BME280;71718;50.480;12.110;2024-02-15T08:25:03;98037.69;;;10.49;72.84
82148;BME280;71718;50.480;12.110;2024-02-15T08:27:29;98031.28;;;10.51;71.52
82148;BME280;71718;50.480;12.110;2024-02-15T08:29:56;98033.50;;;10.54;72.40
82148;BME280;71718;50.480;12.110;2024-02-15T08:32:22;98035.50;;;10.52;71.88
82148;BME280;71718;50.480;12.110;2024-02-15T08:34:49;98037.09;;;10.53;72.49
82148;BME280;71718;50.480;12.110;2024-02-15T08:37:15;98034.13;;;10.63;72.60
82148;BME280;71718;50.480;12.110;2024-02-15T08:39:42;98032.94;;;10.59;69.82
82148;BME280;71718;50.480;12.110;2024-02-15T08:42:08;98033.72;;;10.66;72.02
82148;BME280;71718;50.480;12.110;2024-02-15T08:44:35;98027.34;;;10.69;72.17
82148;BME280;71718;50.480;12.110;2024-02-15T08:47:01;98040.34;;;10.75;71.81
82148;BME280;71718;50.480;12.110;2024-02-15T08:49:27;98039.97;;;10.85;71.81
82148;BME280;71718;50.480;12.110;2024-02-15T08:51:54;98036.97;;;10.88;68.18
82148;BME280;71718;50.480;12.110;2024-02-15T08:54:20;98037.97;;;10.87;67.88
82148;BME280;71718;50.480;12.110;2024-02-15T08:56:47;98039.16;;;10.84;70.10
82148;BME280;71718;50.480;12.110;2024-02-15T08:59:13;98038.38;;;10.84;68.62
82148;BME280;71718;50.480;12.110;2024-02-15T09:01:40;98041.34;;;10.74;70.14
82148;BME280;71718;50.480;12.110;2024-02-15T09:04:06;98039.94;;;10.72;68.31
82148;BME280;71718;50.480;12.110;2024-02-15T09:06:32;98037.31;;;10.65;67.49
82148;BME280;71718;50.480;12.110;2024-02-15T09:08:59;98037.75;;;10.69;69.93
82148;BME280;71718;50.480;12.110;2024-02-15T09:11:29;98036.50;;;10.58;66.98
82148;BME280;71718;50.480;12.110;2024-02-15T09:13:56;98029.91;;;10.55;65.45
82148;BME280;71718;50.480;12.110;2024-02-15T09:16:22;98033.69;;;10.53;66.84
82148;BME280;71718;50.480;12.110;2024-02-15T09:18:48;98035.91;;;10.56;67.00
82148;BME280;71718;50.480;12.110;2024-02-15T09:21:15;98032.13;;;10.65;68.51
82148;BME280;71718;50.480;12.110;2024-02-15T09:23:41;98031.56;;;10.70;68.05
82148;BME280;71718;50.480;12.110;2024-02-15T09:26:08;98028.34;;;10.74;66.99
82148;BME280;71718;50.480;12.110;2024-02-15T09:28:34;98031.56;;;10.70;65.94
82148;BME280;71718;50.480;12.110;2024-02-15T09:31:00;98033.56;;;10.87;68.28
82148;BME280;71718;50.480;12.110;2024-02-15T09:33:27;98033.22;;;11.04;68.30
82148;BME280;71718;50.480;12.110;2024-02-15T09:35:53;98034.41;;;11.08;65.82
82148;BME280;71718;50.480;12.110;2024-02-15T09:38:20;98033.41;;;11.02;64.71
82148;BME280;71718;50.480;12.110;2024-02-15T09:40:48;98031.22;;;10.99;65.74
82148;BME280;71718;50.480;12.110;2024-02-15T09:43:15;98031.03;;;11.01;65.68
82148;BME280;71718;50.480;12.110;2024-02-15T09:45:42;98029.22;;;11.08;69.30
82148;BME280;71718;50.480;12.110;2024-02-15T09:48:10;98026.22;;;10.97;66.30
82148;BME280;71718;50.480;12.110;2024-02-15T09:50:38;98027.00;;;10.98;67.39
82148;BME280;71718;50.480;12.110;2024-02-15T09:53:05;98027.41;;;11.02;65.64
82148;BME280;71718;50.480;12.110;2024-02-15T09:55:34;98019.63;;;10.95;66.11
82148;BME280;71718;50.480;12.110;2024-02-15T09:58:01;98018.63;;;11.03;66.45
82148;BME280;71718;50.480;12.110;2024-02-15T10:00:27;98031.84;;;11.01;66.53
82148;BME280;71718;50.480;12.110;2024-02-15T10:02:53;98020.81;;;11.12;66.96
82148;BME280;71718;50.480;12.110;2024-02-15T10:05:20;98024.03;;;11.27;69.29
82148;BME280;71718;50.480;12.110;2024-02-15T10:07:46;98026.44;;;11.42;69.99
82148;BME280;71718;50.480;12.110;2024-02-15T10:12:43;98033.59;;;11.53;66.85
82148;BME280;71718;50.480;12.110;2024-02-15T10:15:10;98026.22;;;11.50;67.09
82148;BME280;71718;50.480;12.110;2024-02-15T10:17:36;98024.81;;;11.61;68.47
82148;BME280;71718;50.480;12.110;2024-02-15T10:20:04;98020.16;;;11.76;67.30
82148;BME280;71718;50.480;12.110;2024-02-15T10:22:30;98026.56;;;11.80;67.48
82148;BME280;71718;50.480;12.110;2024-02-15T10:25:13;98020.34;;;11.81;67.07
82148;BME280;71718;50.480;12.110;2024-02-15T10:27:40;98022.53;;;11.91;67.06
82148;BME280;71718;50.480;12.110;2024-02-15T10:30:18;98021.91;;;12.02;66.28
82148;BME280;71718;50.480;12.110;2024-02-15T10:32:46;98015.28;;;12.06;66.87
82148;BME280;71718;50.480;12.110;2024-02-15T10:35:20;98013.09;;;11.96;66.79
82148;BME280;71718;50.480;12.110;2024-02-15T10:37:50;98011.03;;;12.11;67.23
82148;BME280;71718;50.480;12.110;2024-02-15T10:40:18;98014.66;;;12.10;66.66
82148;BME280;71718;50.480;12.110;2024-02-15T10:42:47;98007.22;;;12.20;65.33
82148;BME280;71718;50.480;12.110;2024-02-15T10:45:15;98001.69;;;12.04;62.98
82148;BME280;71718;50.480;12.110;2024-02-15T10:47:45;97996.84;;;12.14;65.89
82148;BME280;71718;50.480;12.110;2024-02-15T10:50:12;97995.44;;;12.11;65.57
82148;BME280;71718;50.480;12.110;2024-02-15T10:56:02;97991.75;;;12.32;65.75
82148;BME280;71718;50.480;12.110;2024-02-15T10:58:32;97985.94;;;12.37;65.67
82148;BME280;71718;50.480;12.110;2024-02-15T11:00:59;97985.47;;;12.46;65.65
82148;BME280;71718;50.480;12.110;2024-02-15T11:03:32;97973.78;;;12.24;63.47
82148;BME280;71718;50.480;12.110;2024-02-15T11:06:02;97975.09;;;12.40;65.99
82148;BME280;71718;50.480;12.110;2024-02-15T11:08:29;97984.09;;;12.44;66.25
82148;BME280;71718;50.480;12.110;2024-02-15T11:10:56;97979.22;;;12.54;66.42
82148;BME280;71718;50.480;12.110;2024-02-15T11:13:23;97971.22;;;12.55;64.40
82148;BME280;71718;50.480;12.110;2024-02-15T11:15:49;97970.38;;;12.61;65.33
82148;BME280;71718;50.480;12.110;2024-02-15T11:18:41;97976.25;;;12.50;64.54
82148;BME280;71718;50.480;12.110;2024-02-15T11:21:08;97974.81;;;12.54;64.85
82148;BME280;71718;50.480;12.110;2024-02-15T11:23:35;97973.00;;;12.55;64.92
82148;BME280;71718;50.480;12.110;2024-02-15T11:26:03;97972.97;;;12.61;64.91
82148;BME280;71718;50.480;12.110;2024-02-15T11:30:56;97972.91;;;12.68;64.59
82148;BME280;71718;50.480;12.110;2024-02-15T11:33:30;97980.44;;;12.83;63.33
82148;BME280;71718;50.480;12.110;2024-02-15T11:36:12;97983.03;;;12.83;63.79
82148;BME280;71718;50.480;12.110;2024-02-15T11:38:40;97974.53;;;12.94;63.85
82148;BME280;71718;50.480;12.110;2024-02-15T11:41:08;97972.09;;;12.99;64.42
82148;BME280;71718;50.480;12.110;2024-02-15T11:43:45;97974.81;;;13.10;63.71
82148;BME280;71718;50.480;12.110;2024-02-15T11:46:12;97969.91;;;13.21;62.92
82148;BME280;71718;50.480;12.110;2024-02-15T11:48:39;97963.38;;;13.11;62.39
82148;BME280;71718;50.480;12.110;2024-02-15T11:51:06;97968.22;;;13.08;62.90
82148;BME280;71718;50.480;12.110;2024-02-15T11:53:33;97963.16;;;13.13;63.37
82148;BME280;71718;50.480;12.110;2024-02-15T11:56:02;97974.22;;;13.08;62.47
82148;BME280;71718;50.480;12.110;2024-02-15T11:58:28;97963.56;;;13.10;62.85
82148;BME280;71718;50.480;12.110;2024-02-15T12:00:59;97961.88;;;12.97;62.54
82148;BME280;71718;50.480;12.110;2024-02-15T12:03:26;97969.72;;;12.97;62.91
82148;BME280;71718;50.480;12.110;2024-02-15T12:05:54;97965.06;;;12.99;63.19
82148;BME280;71718;50.480;12.110;2024-02-15T12:08:20;97956.88;;;12.96;63.06
82148;BME280;71718;50.480;12.110;2024-02-15T12:10:57;97963.09;;;12.95;62.86
82148;BME280;71718;50.480;12.110;2024-02-15T12:13:23;97953.53;;;12.89;62.84
82148;BME280;71718;50.480;12.110;2024-02-15T12:16:00;97960.78;;;12.87;63.74
82148;BME280;71718;50.480;12.110;2024-02-15T12:18:26;97954.91;;;12.91;63.46
82148;BME280;71718;50.480;12.110;2024-02-15T12:20:53;97953.34;;;12.84;63.50
82148;BME280;71718;50.480;12.110;2024-02-15T12:23:19;97946.53;;;12.83;62.98
82148;BME280;71718;50.480;12.110;2024-02-15T12:25:51;97949.09;;;12.89;63.02
82148;BME280;71718;50.480;12.110;2024-02-15T12:28:18;97962.56;;;12.86;63.08
82148;BME280;71718;50.480;12.110;2024-02-15T12:30:44;97954.13;;;12.91;63.55
82148;BME280;71718;50.480;12.110;2024-02-15T12:33:12;97959.69;;;12.94;63.05
82148;BME280;71718;50.480;12.110;2024-02-15T12:35:40;97952.41;;;13.03;63.55
82148;BME280;71718;50.480;12.110;2024-02-15T12:38:06;97950.53;;;13.10;63.97
82148;BME280;71718;50.480;12.110;2024-02-15T12:40:37;97944.63;;;13.21;63.68
82148;BME280;71718;50.480;12.110;2024-02-15T12:43:07;97948.25;;;13.20;62.62
82148;BME280;71718;50.480;12.110;2024-02-15T12:45:38;97939.75;;;13.25;62.62
82148;BME280;71718;50.480;12.110;2024-02-15T12:48:06;97930.84;;;13.39;61.15
82148;BME280;71718;50.480;12.110;2024-02-15T12:50:33;97926.69;;;13.31;61.67
82148;BME280;71718;50.480;12.110;2024-02-15T12:52:59;97926.69;;;13.31;62.55
82148;BME280;71718;50.480;12.110;2024-02-15T12:55:25;97930.06;;;13.38;62.61
82148;BME280;71718;50.480;12.110;2024-02-15T12:57:54;97926.34;;;13.46;62.51
82148;BME280;71718;50.480;12.110;2024-02-15T13:00:24;97927.59;;;13.43;61.03
82148;BME280;71718;50.480;12.110;2024-02-15T13:02:51;97921.63;;;13.36;61.31
82148;BME280;71718;50.480;12.110;2024-02-15T13:05:18;97930.84;;;13.39;61.23